createdAt,value
2022-11-05T00:02:07.402Z,9.79
2022-11-05T00:04:53.687Z,9.89
2022-11-05T00:07:48.198Z,9.80
2022-11-05T00:10:23.366Z,9.76
2022-11-05T00:13:12.232Z,9.77
2022-11-05T00:15:58.759Z,9.65
2022-11-05T00:18:27.585Z,9.58
2022-11-05T00:20:56.176Z,9.53
2022-11-05T00:23:42.711Z,9.51
2022-11-05T00:26:13.801Z,9.48
2022-11-05T00:28:44.664Z,9.44
2022-11-05T00:31:15.461Z,9.43
2022-11-05T00:33:44.624Z,9.46
2022-11-05T00:36:13.475Z,9.44
2022-11-05T00:38:42.272Z,9.46
2022-11-05T00:41:12.129Z,9.48
2022-11-05T00:43:58.323Z,9.44
2022-11-05T00:46:26.856Z,9.34
2022-11-05T00:49:13.171Z,9.38
2022-11-05T00:51:41.652Z,9.30
2022-11-05T00:54:10.460Z,9.23
2022-11-05T00:56:40.275Z,9.30
2022-11-05T00:59:09.133Z,9.26
2022-11-05T01:01:37.782Z,9.29
2022-11-05T01:04:06.819Z,9.31
2022-11-05T01:06:35.314Z,9.34
2022-11-05T01:09:04.197Z,9.31
2022-11-05T01:11:37.283Z,9.28
2022-11-05T01:14:10.589Z,9.28
2022-11-05T01:16:40.554Z,9.39
2022-11-05T01:19:11.985Z,9.32
2022-11-05T01:21:40.677Z,9.39
2022-11-05T01:24:11.784Z,9.34
2022-11-05T01:26:40.271Z,9.40
2022-11-05T01:29:12.616Z,9.34
2022-11-05T01:31:41.170Z,9.35
2022-11-05T01:34:10.028Z,9.34
2022-11-05T01:36:38.566Z,9.33
2022-11-05T01:39:07.606Z,9.31
2022-11-05T01:41:36.115Z,9.36
2022-11-05T01:44:05.033Z,9.34
2022-11-05T01:46:39.895Z,9.34
2022-11-05T01:49:16.760Z,9.38
2022-11-05T01:51:47.221Z,9.28
2022-11-05T01:54:22.700Z,9.32
2022-11-05T01:56:57.060Z,9.30
2022-11-05T01:59:32.411Z,9.23
2022-11-05T02:02:04.730Z,9.15
2022-11-05T02:04:44.489Z,9.18
2022-11-05T02:07:14.247Z,9.19
2022-11-05T02:09:52.305Z,9.28
2022-11-05T02:12:23.033Z,9.22
2022-11-05T02:14:52.023Z,9.23
2022-11-05T02:17:38.053Z,9.26
2022-11-05T02:20:34.761Z,9.20
2022-11-05T02:23:43.993Z,9.10
2022-11-05T02:26:56.827Z,9.07
2022-11-05T02:30:25.016Z,9.06
2022-11-05T02:33:11.099Z,9.03
2022-11-05T02:36:11.631Z,9.05
2022-11-05T02:38:48.672Z,8.95
2022-11-05T02:41:31.370Z,8.96
2022-11-05T02:44:16.029Z,8.95
2022-11-05T02:46:57.503Z,8.96
2022-11-05T02:49:45.519Z,8.93
2022-11-05T02:52:22.288Z,8.87
2022-11-05T02:55:00.453Z,8.92
2022-11-05T02:57:31.446Z,8.90
2022-11-05T03:00:07.971Z,8.86
2022-11-05T03:02:38.058Z,8.83
2022-11-05T03:05:07.851Z,8.83
2022-11-05T03:07:53.686Z,8.78
2022-11-05T03:10:46.409Z,8.81
2022-11-05T03:13:23.425Z,8.75
2022-11-05T03:16:03.557Z,8.75
2022-11-05T03:18:43.488Z,8.74
2022-11-05T03:21:22.893Z,8.72
2022-11-05T03:23:59.704Z,8.70
2022-11-05T03:26:34.831Z,8.63
2022-11-05T03:29:11.023Z,8.75
2022-11-05T03:31:42.792Z,8.78
2022-11-05T03:34:17.772Z,8.72
2022-11-05T03:36:54.637Z,8.72
2022-11-05T03:39:31.366Z,8.70
2022-11-05T03:42:02.968Z,8.68
2022-11-05T03:44:36.162Z,8.54
2022-11-05T03:47:12.455Z,8.64
2022-11-05T03:49:55.560Z,8.58
2022-11-05T03:52:30.059Z,8.53
2022-11-05T03:54:58.827Z,8.52
2022-11-05T03:57:33.558Z,8.55
2022-11-05T04:00:02.223Z,8.57
2022-11-05T04:02:40.617Z,8.56
2022-11-05T04:05:10.806Z,8.52
2022-11-05T04:07:57.115Z,8.55
2022-11-05T04:10:42.988Z,8.53
2022-11-05T04:13:27.959Z,8.48
2022-11-05T04:16:15.361Z,8.50
2022-11-05T04:18:44.616Z,8.46
2022-11-05T04:21:32.033Z,8.45
2022-11-05T04:24:09.904Z,8.43
2022-11-05T04:26:41.627Z,8.46
2022-11-05T04:29:28.581Z,8.48
2022-11-05T04:31:57.110Z,8.49
2022-11-05T04:34:25.955Z,8.51
2022-11-05T04:36:55.780Z,8.52
2022-11-05T04:39:24.669Z,8.58
2022-11-05T04:41:53.181Z,8.58
2022-11-05T04:44:21.960Z,8.52
2022-11-05T04:46:50.513Z,8.50
2022-11-05T04:49:19.310Z,8.46
2022-11-05T04:51:47.811Z,8.45
2022-11-05T04:54:17.964Z,8.50
2022-11-05T04:56:46.492Z,8.42
2022-11-05T04:59:15.263Z,8.43
2022-11-05T05:01:43.841Z,8.38
2022-11-05T05:04:12.760Z,8.37
2022-11-05T05:06:41.274Z,8.39
2022-11-05T05:09:10.080Z,8.35
2022-11-05T05:11:41.193Z,8.32
2022-11-05T05:14:10.322Z,8.27
2022-11-05T05:16:38.826Z,8.19
2022-11-05T05:19:07.727Z,8.11
2022-11-05T05:21:41.602Z,8.20
2022-11-05T05:24:13.536Z,8.12
2022-11-05T05:26:46.406Z,8.07
2022-11-05T05:29:16.435Z,8.04
2022-11-05T05:31:45.410Z,8.08
2022-11-05T05:34:16.029Z,8.03
2022-11-05T05:36:44.525Z,8.01
2022-11-05T05:39:14.656Z,8.02
2022-11-05T05:41:44.549Z,8.07
2022-11-05T05:44:13.339Z,8.00
2022-11-05T05:46:41.900Z,7.99
2022-11-05T05:49:12.781Z,7.98
2022-11-05T05:51:41.408Z,7.99
2022-11-05T05:54:12.249Z,7.99
2022-11-05T05:56:40.799Z,8.00
2022-11-05T05:59:11.297Z,8.02
2022-11-05T06:01:40.083Z,7.92
2022-11-05T06:04:10.343Z,7.89
2022-11-05T06:06:38.838Z,7.86
2022-11-05T06:09:07.806Z,7.93
2022-11-05T06:11:36.286Z,7.89
2022-11-05T06:14:05.054Z,7.93
2022-11-05T06:16:35.855Z,7.91
2022-11-05T06:19:04.822Z,7.90
2022-11-05T06:21:33.904Z,7.92
2022-11-05T06:24:03.428Z,7.90
2022-11-05T06:26:32.461Z,7.86
2022-11-05T06:29:01.262Z,7.85
2022-11-05T06:31:29.820Z,7.86
2022-11-05T06:33:59.990Z,7.89
2022-11-05T06:36:28.581Z,7.93
2022-11-05T06:38:57.687Z,7.90
2022-11-05T06:41:26.317Z,7.86
2022-11-05T06:43:55.256Z,7.91
2022-11-05T06:46:23.774Z,7.94
2022-11-05T06:48:52.556Z,7.93
2022-11-05T06:51:22.456Z,7.91
2022-11-05T06:53:51.388Z,7.95
2022-11-05T06:56:19.876Z,8.01
2022-11-05T06:58:48.634Z,8.00
2022-11-05T07:01:17.258Z,8.00
2022-11-05T07:03:48.985Z,7.99
2022-11-05T07:06:17.700Z,8.03
2022-11-05T07:08:47.879Z,8.06
2022-11-05T07:11:16.430Z,8.06
2022-11-05T07:13:45.275Z,8.03
2022-11-05T07:16:13.792Z,8.04
2022-11-05T07:18:42.634Z,8.03
2022-11-05T07:21:11.149Z,8.09
2022-11-05T07:23:39.986Z,8.07
2022-11-05T07:26:09.876Z,8.06
2022-11-05T07:28:38.686Z,8.10
2022-11-05T07:31:07.446Z,8.15
2022-11-05T07:33:36.836Z,8.14
2022-11-05T07:36:06.340Z,8.20
2022-11-05T07:38:35.159Z,8.25
2022-11-05T07:41:03.774Z,8.20
2022-11-05T07:43:33.983Z,8.23
2022-11-05T07:46:02.484Z,8.26
2022-11-05T07:48:31.256Z,8.27
2022-11-05T07:50:59.773Z,8.25
2022-11-05T07:53:28.596Z,8.28
2022-11-05T07:55:58.982Z,8.27
2022-11-05T07:58:27.813Z,8.37
2022-11-05T08:00:58.317Z,8.31
2022-11-05T08:03:27.313Z,8.35
2022-11-05T08:05:55.972Z,8.32
2022-11-05T08:08:24.817Z,8.24
2022-11-05T08:10:53.664Z,8.30
2022-11-05T08:13:22.576Z,8.31
2022-11-05T08:15:51.096Z,8.38
2022-11-05T08:18:21.216Z,8.40
2022-11-05T08:20:50.005Z,8.45
2022-11-05T08:23:18.778Z,8.49
2022-11-05T08:25:47.316Z,8.49
2022-11-05T08:28:16.110Z,8.57
2022-11-05T08:30:44.691Z,8.54
2022-11-05T08:33:14.565Z,8.66
2022-11-05T08:35:44.904Z,8.57
2022-11-05T08:38:16.682Z,8.54
2022-11-05T08:40:47.698Z,8.65
2022-11-05T08:43:16.490Z,8.66
2022-11-05T08:45:45.050Z,8.61
2022-11-05T08:48:17.500Z,8.71
2022-11-05T08:50:49.432Z,8.79
2022-11-05T08:53:18.702Z,8.80
2022-11-05T08:55:50.122Z,8.79
2022-11-05T08:58:20.848Z,8.83
2022-11-05T09:00:51.224Z,8.81
2022-11-05T09:03:21.904Z,8.84
2022-11-05T09:05:51.793Z,8.85
2022-11-05T09:08:20.710Z,8.90
2022-11-05T09:10:50.306Z,8.90
2022-11-05T09:13:20.236Z,8.82
2022-11-05T09:15:50.508Z,8.95
2022-11-05T09:18:21.243Z,9.01
2022-11-05T09:20:51.201Z,8.96
2022-11-05T09:23:20.153Z,8.93
2022-11-05T09:25:48.982Z,8.97
2022-11-05T09:28:21.509Z,9.03
2022-11-05T09:30:53.122Z,9.04
2022-11-05T09:33:24.666Z,9.08
2022-11-05T09:35:55.140Z,9.09
2022-11-05T09:38:23.994Z,9.08
2022-11-05T09:41:00.822Z,9.09
2022-11-05T09:43:36.676Z,9.09
2022-11-05T09:46:12.838Z,9.08
2022-11-05T09:48:43.519Z,9.10
2022-11-05T09:51:23.402Z,9.19
2022-11-05T09:53:53.715Z,9.27
2022-11-05T09:56:27.750Z,9.21
2022-11-05T09:59:02.452Z,9.24
2022-11-05T10:01:37.767Z,9.33
2022-11-05T10:04:11.115Z,9.39
2022-11-05T10:06:49.594Z,9.44
2022-11-05T10:09:27.526Z,9.35
2022-11-05T10:12:04.026Z,9.38
2022-11-05T10:14:41.734Z,9.35
2022-11-05T10:17:21.311Z,9.40
2022-11-05T10:19:57.269Z,9.32
2022-11-05T10:22:27.370Z,9.33
2022-11-05T10:24:57.045Z,9.39
2022-11-05T10:27:31.232Z,9.34
2022-11-05T10:30:01.126Z,9.36
2022-11-05T10:32:34.601Z,9.45
2022-11-05T10:35:07.881Z,9.46
2022-11-05T10:37:41.054Z,9.45
2022-11-05T10:40:21.222Z,9.50
2022-11-05T10:43:03.484Z,9.60
2022-11-05T10:45:47.429Z,9.62
2022-11-05T10:48:43.707Z,9.58
2022-11-05T10:51:14.192Z,9.58
2022-11-05T10:53:58.864Z,9.51
2022-11-05T10:56:35.267Z,9.43
2022-11-05T10:59:11.939Z,9.50
2022-11-05T11:01:41.800Z,9.57
2022-11-05T11:04:21.753Z,9.59
2022-11-05T11:06:53.962Z,9.53
2022-11-05T11:09:28.600Z,9.59
2022-11-05T11:12:03.642Z,9.54
2022-11-05T11:14:35.078Z,9.53
2022-11-05T11:17:33.942Z,9.60
2022-11-05T11:20:30.296Z,9.54
2022-11-05T11:23:10.630Z,9.50
2022-11-05T11:25:51.722Z,9.47
2022-11-05T11:28:25.363Z,9.51
2022-11-05T11:31:08.748Z,9.59
2022-11-05T11:33:40.225Z,9.58
2022-11-05T11:36:13.186Z,9.62
2022-11-05T11:38:43.433Z,9.58
2022-11-05T11:41:27.197Z,9.66
2022-11-05T11:44:03.708Z,9.69
2022-11-05T11:46:36.406Z,9.73
2022-11-05T11:49:07.728Z,9.76
2022-11-05T11:51:40.813Z,9.72
2022-11-05T11:54:23.911Z,9.75
2022-11-05T11:56:57.469Z,9.73
2022-11-05T12:00:01.750Z,9.72
2022-11-05T12:03:11.580Z,9.73
2022-11-05T12:05:48.548Z,9.70
2022-11-05T12:08:45.617Z,9.72
2022-11-05T12:11:24.751Z,9.74
2022-11-05T12:14:04.461Z,9.77
2022-11-05T12:17:03.621Z,9.79
2022-11-05T12:20:03.753Z,9.77
2022-11-05T12:23:09.840Z,9.79
2022-11-05T12:25:49.950Z,9.79
2022-11-05T12:29:16.734Z,9.85
2022-11-05T12:31:59.931Z,9.86
2022-11-05T12:34:50.522Z,9.87
2022-11-05T12:37:32.704Z,9.91
2022-11-05T12:40:26.169Z,9.91
2022-11-05T12:43:12.107Z,9.93
2022-11-05T12:45:52.528Z,9.88
2022-11-05T12:48:44.096Z,9.87
2022-11-05T12:51:31.212Z,9.83
2022-11-05T12:54:20.280Z,9.82
2022-11-05T12:56:54.544Z,9.77
2022-11-05T12:59:35.708Z,9.78
2022-11-05T13:02:17.943Z,9.76
2022-11-05T13:04:54.224Z,9.74
2022-11-05T13:07:30.994Z,9.80
2022-11-05T13:10:06.989Z,9.82
2022-11-05T13:12:42.614Z,9.83
2022-11-05T13:15:25.770Z,9.66
2022-11-05T13:18:00.907Z,9.72
2022-11-05T13:20:36.643Z,9.77
2022-11-05T13:23:17.424Z,9.77
2022-11-05T13:25:54.409Z,9.71
2022-11-05T13:28:40.539Z,9.71
2022-11-05T13:31:17.148Z,9.72
2022-11-05T13:33:49.932Z,9.72
2022-11-05T13:36:43.127Z,9.71
2022-11-05T13:39:20.835Z,9.66
2022-11-05T13:42:07.370Z,9.62
2022-11-05T13:45:16.109Z,9.60
2022-11-05T13:48:04.277Z,9.58
2022-11-05T13:51:04.678Z,9.62
2022-11-05T13:54:16.916Z,9.61
2022-11-05T13:57:13.379Z,9.58
2022-11-05T13:59:59.862Z,9.59
2022-11-05T14:02:37.950Z,9.56
2022-11-05T14:05:21.110Z,9.58
2022-11-05T14:07:50.511Z,9.54
2022-11-05T14:10:34.835Z,9.48
2022-11-05T14:13:24.429Z,9.45
2022-11-05T14:16:04.529Z,9.42
2022-11-05T14:18:45.006Z,9.41
2022-11-05T14:21:49.739Z,9.41
2022-11-05T14:24:43.188Z,9.42
2022-11-05T14:27:48.146Z,9.41
2022-11-05T14:30:44.122Z,9.43
2022-11-05T14:33:32.279Z,9.41
2022-11-05T14:37:03.346Z,9.39
2022-11-05T14:39:33.780Z,9.35
2022-11-05T14:42:12.215Z,9.35
2022-11-05T14:45:16.696Z,9.37
2022-11-05T14:47:55.586Z,9.33
2022-11-05T14:50:34.580Z,9.38
2022-11-05T14:53:32.793Z,9.40
2022-11-05T14:56:06.476Z,9.39
2022-11-05T14:58:38.580Z,9.39
2022-11-05T15:01:30.214Z,9.40
2022-11-05T15:04:17.457Z,9.39
2022-11-05T15:07:32.981Z,9.40
2022-11-05T15:10:10.609Z,9.34
2022-11-05T15:12:46.570Z,9.32
2022-11-05T15:15:24.552Z,9.25
2022-11-05T15:18:04.688Z,9.25
2022-11-05T15:20:40.618Z,9.26
2022-11-05T15:23:15.604Z,9.25
2022-11-05T15:25:53.580Z,9.27
2022-11-05T15:28:33.339Z,9.25
2022-11-05T15:31:05.579Z,9.26
2022-11-05T15:33:35.524Z,9.26
2022-11-05T15:36:28.214Z,9.25
2022-11-05T15:39:27.503Z,9.27
2022-11-05T15:41:48.297Z,9.30
2022-11-05T15:44:33.025Z,9.29
2022-11-05T15:47:24.026Z,9.26
2022-11-05T15:49:57.129Z,9.24
2022-11-05T15:52:36.419Z,9.23
2022-11-05T15:55:20.098Z,9.19
2022-11-05T15:57:52.712Z,9.18
2022-11-05T16:00:24.294Z,9.16
2022-11-05T16:02:59.228Z,9.21
2022-11-05T16:05:34.966Z,9.23
2022-11-05T16:08:05.520Z,9.21
2022-11-05T16:10:37.909Z,9.24
2022-11-05T16:13:35.052Z,9.28
2022-11-05T16:16:06.743Z,9.25
2022-11-05T16:18:38.779Z,9.22
2022-11-05T16:21:11.554Z,9.19
2022-11-05T16:23:55.039Z,9.24
2022-11-05T16:27:00.595Z,9.23
2022-11-05T16:29:27.965Z,9.21
2022-11-05T16:31:59.907Z,9.14
2022-11-05T16:34:37.396Z,9.25
2022-11-05T16:37:12.260Z,9.27
2022-11-05T16:39:41.159Z,9.21
2022-11-05T16:42:38.791Z,9.34
2022-11-05T16:45:11.522Z,9.32
2022-11-05T16:47:40.112Z,9.22
2022-11-05T16:50:24.399Z,9.49
2022-11-05T16:52:54.648Z,10.02
2022-11-05T16:55:23.761Z,9.85
2022-11-05T16:57:56.347Z,9.61
2022-11-05T17:00:26.286Z,9.61
2022-11-05T17:02:55.587Z,9.74
2022-11-05T17:05:28.716Z,10.07
2022-11-05T17:08:00.664Z,9.81
2022-11-05T17:10:29.624Z,9.91
2022-11-05T17:12:58.710Z,11.17
2022-11-05T17:15:31.173Z,10.92
2022-11-05T17:18:00.643Z,11.42
2022-11-05T17:20:39.829Z,11.52
2022-11-05T17:23:14.537Z,11.55
2022-11-05T17:25:46.709Z,11.74
2022-11-05T17:28:16.678Z,11.19
2022-11-05T17:30:52.190Z,11.25
2022-11-05T17:33:23.325Z,11.88
2022-11-05T17:35:53.560Z,11.87
2022-11-05T17:38:26.366Z,11.63
2022-11-05T17:40:55.323Z,11.63
2022-11-05T17:43:24.566Z,11.14
2022-11-05T17:45:55.824Z,11.17
2022-11-05T17:48:26.209Z,11.71
2022-11-05T17:50:56.811Z,11.25
2022-11-05T17:53:26.822Z,11.03
2022-11-05T17:55:55.784Z,11.41
2022-11-05T17:58:24.318Z,11.15
2022-11-05T18:00:53.247Z,11.56
2022-11-05T18:03:21.818Z,11.09
2022-11-05T18:05:50.652Z,11.50
2022-11-05T18:08:19.239Z,11.48
2022-11-05T18:10:49.400Z,11.20
2022-11-05T18:13:17.998Z,11.02
2022-11-05T18:15:46.836Z,11.85
2022-11-05T18:18:15.477Z,10.69
2022-11-05T18:20:44.384Z,10.28
2022-11-05T18:23:14.243Z,10.93
2022-11-05T18:25:43.859Z,10.98
2022-11-05T18:28:14.024Z,12.07
2022-11-05T18:30:43.235Z,11.72
2022-11-05T18:33:12.178Z,11.71
2022-11-05T18:35:45.561Z,11.71
2022-11-05T18:38:14.263Z,11.94
2022-11-05T18:40:43.072Z,11.64
2022-11-05T18:43:13.486Z,11.43
2022-11-05T18:45:42.613Z,11.06
2022-11-05T18:48:12.564Z,11.09
2022-11-05T18:50:41.898Z,10.95
2022-11-05T18:53:10.482Z,11.21
2022-11-05T18:55:40.537Z,10.71
2022-11-05T18:58:09.806Z,10.54
2022-11-05T19:00:42.177Z,11.06
2022-11-05T19:03:10.724Z,11.44
2022-11-05T19:05:39.530Z,10.43
2022-11-05T19:08:08.088Z,11.16
2022-11-05T19:10:40.183Z,11.15
2022-11-05T19:13:08.782Z,10.94
2022-11-05T19:15:37.603Z,10.64
2022-11-05T19:18:07.515Z,11.36
2022-11-05T19:20:37.948Z,10.20
2022-11-05T19:23:06.958Z,10.42
2022-11-05T19:25:38.197Z,11.40
2022-11-05T19:28:06.803Z,11.02
2022-11-05T19:30:35.642Z,11.55
2022-11-05T19:33:04.261Z,11.24
2022-11-05T19:35:39.910Z,11.44
2022-11-05T19:38:10.141Z,11.42
2022-11-05T19:40:39.326Z,11.10
2022-11-05T19:43:08.294Z,11.54
2022-11-05T19:45:44.626Z,11.28
2022-11-05T19:48:19.047Z,11.32
2022-11-05T19:50:49.745Z,11.46
2022-11-05T19:53:18.635Z,11.20
2022-11-05T19:55:47.608Z,11.88
2022-11-05T19:58:16.572Z,10.55
2022-11-05T20:00:45.668Z,10.30
2022-11-05T20:03:14.574Z,10.36
2022-11-05T20:05:43.497Z,10.73
2022-11-05T20:08:13.578Z,10.51
2022-11-05T20:10:42.850Z,10.52
2022-11-05T20:13:15.559Z,10.80
2022-11-05T20:15:47.521Z,11.45
2022-11-05T20:18:17.100Z,10.85
2022-11-05T20:20:46.986Z,11.19
2022-11-05T20:23:16.917Z,10.76
2022-11-05T20:25:45.778Z,11.21
2022-11-05T20:28:14.539Z,11.19
2022-11-05T20:30:43.668Z,11.40
2022-11-05T20:33:12.791Z,11.66
2022-11-05T20:35:42.797Z,11.77
2022-11-05T20:38:11.486Z,11.84
2022-11-05T20:40:42.250Z,11.17
2022-11-05T20:43:10.852Z,11.46
2022-11-05T20:45:40.021Z,10.85
2022-11-05T20:48:08.628Z,11.14
2022-11-05T20:50:41.703Z,11.52
2022-11-05T20:53:10.657Z,11.02
2022-11-05T20:55:46.524Z,10.24
2022-11-05T20:58:17.154Z,11.04
2022-11-05T21:00:51.754Z,10.48
2022-11-05T21:03:20.998Z,10.70
2022-11-05T21:05:52.187Z,10.80
2022-11-05T21:08:21.644Z,10.56
2022-11-05T21:10:51.761Z,9.99
2022-11-05T21:13:20.687Z,9.84
2022-11-05T21:15:52.010Z,10.26
2022-11-05T21:18:23.998Z,11.41
2022-11-05T21:20:53.437Z,11.18
2022-11-05T21:23:22.608Z,11.90
2022-11-05T21:25:52.833Z,11.58
2022-11-05T21:28:21.322Z,11.35
2022-11-05T21:30:50.169Z,10.81
2022-11-05T21:33:20.158Z,11.17
2022-11-05T21:35:49.945Z,11.57
2022-11-05T21:38:19.053Z,10.74
2022-11-05T21:40:48.206Z,10.85
2022-11-05T21:43:18.545Z,10.44
2022-11-05T21:45:47.476Z,11.47
2022-11-05T21:48:16.185Z,10.85
2022-11-05T21:51:02.758Z,11.31
2022-11-05T21:53:48.661Z,10.99
2022-11-05T21:56:38.676Z,11.25
2022-11-05T21:59:30.172Z,11.13
2022-11-05T22:02:02.580Z,10.35
2022-11-05T22:04:33.628Z,10.23
2022-11-05T22:07:02.968Z,10.90
2022-11-05T22:09:32.084Z,10.64
2022-11-05T22:12:01.702Z,10.88
2022-11-05T22:14:31.925Z,11.05
2022-11-05T22:17:02.207Z,11.34
2022-11-05T22:19:31.578Z,11.12
2022-11-05T22:22:00.527Z,10.70
2022-11-05T22:24:31.790Z,11.51
2022-11-05T22:27:01.963Z,10.71
2022-11-05T22:29:32.081Z,11.47
2022-11-05T22:32:01.075Z,11.24
2022-11-05T22:34:29.678Z,11.06
2022-11-05T22:36:58.849Z,11.46
2022-11-05T22:39:27.501Z,11.75
2022-11-05T22:41:58.647Z,10.84
2022-11-05T22:44:28.675Z,11.26
2022-11-05T22:46:58.917Z,10.98
2022-11-05T22:49:27.487Z,10.89
2022-11-05T22:51:56.458Z,10.89
2022-11-05T22:54:25.020Z,10.64
2022-11-05T22:56:53.885Z,10.39
2022-11-05T22:59:22.537Z,11.19
2022-11-05T23:01:51.646Z,10.96
2022-11-05T23:04:21.661Z,11.11
2022-11-05T23:07:08.001Z,11.07
2022-11-05T23:09:54.357Z,10.82
2022-11-05T23:12:27.778Z,11.53
2022-11-05T23:14:58.741Z,10.77
2022-11-05T23:17:45.860Z,10.69
2022-11-05T23:20:37.616Z,10.28
2022-11-05T23:23:28.625Z,11.02
2022-11-05T23:25:58.772Z,10.70
2022-11-05T23:28:27.824Z,10.58
2022-11-05T23:31:14.043Z,10.26
2022-11-05T23:33:42.961Z,11.00
2022-11-05T23:36:32.346Z,10.69
2022-11-05T23:39:01.115Z,10.38
2022-11-05T23:41:47.150Z,11.01
2022-11-05T23:44:33.645Z,11.26
2022-11-05T23:47:19.912Z,10.12
2022-11-05T23:49:48.801Z,10.37
2022-11-05T23:52:18.643Z,9.73
2022-11-05T23:54:47.432Z,10.38
2022-11-05T23:57:15.932Z,9.91
2022-11-05T23:59:44.723Z,9.39
